sensor_id;sensor_type;location;lat;lon;timestamp;pressure;altitude;pressure_sealevel;temperature
45976;BMP280;31696;42.668;23.322;2024-02-21T00:00:57;95325.19;;;7.39
45976;BMP280;31696;42.668;23.322;2024-02-21T00:02:57;95319.94;;;7.21
45976;BMP280;31696;42.668;23.322;2024-02-21T00:04:59;95322.41;;;7.08
45976;BMP280;31696;42.668;23.322;2024-02-21T00:06:59;95324.84;;;7.24
45976;BMP280;31696;42.668;23.322;2024-02-21T00:09:00;95324.16;;;7.24
45976;BMP280;31696;42.668;23.322;2024-02-21T00:11:00;95318.03;;;7.27
45976;BMP280;31696;42.668;23.322;2024-02-21T00:13:01;95320.28;;;7.36
45976;BMP280;31696;42.668;23.322;2024-02-21T00:15:01;95320.81;;;7.29
45976;BMP280;31696;42.668;23.322;2024-02-21T00:17:01;95329.56;;;7.26
45976;BMP280;31696;42.668;23.322;2024-02-21T00:19:02;95320.91;;;7.18
45976;BMP280;31696;42.668;23.322;2024-02-21T00:21:02;95321.69;;;7.37
45976;BMP280;31696;42.668;23.322;2024-02-21T00:23:03;95315.13;;;7.36
45976;BMP280;31696;42.668;23.322;2024-02-21T00:25:03;95320.88;;;7.48
45976;BMP280;31696;42.668;23.322;2024-02-21T00:27:04;95316.06;;;7.33
45976;BMP280;31696;42.668;23.322;2024-02-21T00:29:04;95310.91;;;7.33
45976;BMP280;31696;42.668;23.322;2024-02-21T00:31:05;95320.38;;;7.25
45976;BMP280;31696;42.668;23.322;2024-02-21T00:33:05;95318.13;;;7.16
45976;BMP280;31696;42.668;23.322;2024-02-21T00:35:06;95316.19;;;7.22
45976;BMP280;31696;42.668;23.322;2024-02-21T00:37:06;95326.06;;;7.18
45976;BMP280;31696;42.668;23.322;2024-02-21T00:39:06;95311.97;;;7.19
45976;BMP280;31696;42.668;23.322;2024-02-21T00:41:07;95316.84;;;7.28
45976;BMP280;31696;42.668;23.322;2024-02-21T00:43:07;95313.72;;;7.35
45976;BMP280;31696;42.668;23.322;2024-02-21T00:45:07;95321.38;;;7.22
45976;BMP280;31696;42.668;23.322;2024-02-21T00:47:09;95311.72;;;7.22
45976;BMP280;31696;42.668;23.322;2024-02-21T00:49:10;95306.81;;;7.19
45976;BMP280;31696;42.668;23.322;2024-02-21T00:51:10;95305.72;;;7.09
45976;BMP280;31696;42.668;23.322;2024-02-21T00:53:10;95308.19;;;7.25
45976;BMP280;31696;42.668;23.322;2024-02-21T00:55:11;95304.88;;;7.25
45976;BMP280;31696;42.668;23.322;2024-02-21T00:57:11;95305.69;;;7.14
45976;BMP280;31696;42.668;23.322;2024-02-21T00:59:11;95305.00;;;7.14
45976;BMP280;31696;42.668;23.322;2024-02-21T01:01:12;95295.84;;;7.13
45976;BMP280;31696;42.668;23.322;2024-02-21T01:03:12;95292.44;;;6.99
45976;BMP280;31696;42.668;23.322;2024-02-21T01:05:12;95292.91;;;6.98
45976;BMP280;31696;42.668;23.322;2024-02-21T01:07:13;95286.53;;;7.04
45976;BMP280;31696;42.668;23.322;2024-02-21T01:09:13;95289.59;;;7.03
45976;BMP280;31696;42.668;23.322;2024-02-21T01:11:14;95284.47;;;6.97
45976;BMP280;31696;42.668;23.322;2024-02-21T01:13:15;95281.38;;;7.04
45976;BMP280;31696;42.668;23.322;2024-02-21T01:15:15;95281.84;;;7.03
45976;BMP280;31696;42.668;23.322;2024-02-21T01:17:15;95278.81;;;6.99
45976;BMP280;31696;42.668;23.322;2024-02-21T01:19:16;95276.34;;;6.87
45976;BMP280;31696;42.668;23.322;2024-02-21T01:21:16;95276.69;;;7.03
45976;BMP280;31696;42.668;23.322;2024-02-21T01:23:16;95278.91;;;6.87
45976;BMP280;31696;42.668;23.322;2024-02-21T01:25:16;95277.28;;;6.90
45976;BMP280;31696;42.668;23.322;2024-02-21T01:27:17;95282.06;;;7.05
45976;BMP280;31696;42.668;23.322;2024-02-21T01:29:17;95278.97;;;7.12
45976;BMP280;31696;42.668;23.322;2024-02-21T01:31:17;95277.75;;;6.88
45976;BMP280;31696;42.668;23.322;2024-02-21T01:33:18;95278.38;;;6.95
45976;BMP280;31696;42.668;23.322;2024-02-21T01:35:19;95275.41;;;6.90
45976;BMP280;31696;42.668;23.322;2024-02-21T01:37:19;95275.72;;;7.06
45976;BMP280;31696;42.668;23.322;2024-02-21T01:39:19;95271.78;;;6.99
45976;BMP280;31696;42.668;23.322;2024-02-21T01:41:20;95274.69;;;7.14
45976;BMP280;31696;42.668;23.322;2024-02-21T01:43:20;95265.28;;;6.93
45976;BMP280;31696;42.668;23.322;2024-02-21T01:45:21;95268.41;;;7.10
45976;BMP280;31696;42.668;23.322;2024-02-21T01:47:21;95261.81;;;7.09
45976;BMP280;31696;42.668;23.322;2024-02-21T01:49:22;95255.34;;;7.26
45976;BMP280;31696;42.668;23.322;2024-02-21T01:51:22;95261.63;;;7.07
45976;BMP280;31696;42.668;23.322;2024-02-21T01:53:23;95255.91;;;7.14
45976;BMP280;31696;42.668;23.322;2024-02-21T01:55:25;95253.09;;;7.17
45976;BMP280;31696;42.668;23.322;2024-02-21T01:57:26;95253.44;;;7.27
45976;BMP280;31696;42.668;23.322;2024-02-21T01:59:28;95251.69;;;7.35
45976;BMP280;31696;42.668;23.322;2024-02-21T02:01:29;95253.00;;;7.23
45976;BMP280;31696;42.668;23.322;2024-02-21T02:03:29;95250.88;;;7.27
45976;BMP280;31696;42.668;23.322;2024-02-21T02:05:30;95248.56;;;7.42
45976;BMP280;31696;42.668;23.322;2024-02-21T02:07:30;95246.91;;;7.20
45976;BMP280;31696;42.668;23.322;2024-02-21T02:09:31;95254.31;;;7.29
45976;BMP280;31696;42.668;23.322;2024-02-21T02:11:34;95254.31;;;7.11
45976;BMP280;31696;42.668;23.322;2024-02-21T02:13:35;95252.25;;;7.28
45976;BMP280;31696;42.668;23.322;2024-02-21T02:17:39;95253.59;;;7.10
45976;BMP280;31696;42.668;23.322;2024-02-21T02:19:39;95247.34;;;7.24
45976;BMP280;31696;42.668;23.322;2024-02-21T02:21:40;95246.81;;;7.31
45976;BMP280;31696;42.668;23.322;2024-02-21T02:23:42;95245.63;;;7.32
45976;BMP280;31696;42.668;23.322;2024-02-21T02:25:42;95240.19;;;7.36
45976;BMP280;31696;42.668;23.322;2024-02-21T02:27:44;95238.06;;;7.16
45976;BMP280;31696;42.668;23.322;2024-02-21T02:29:45;95236.75;;;7.04
45976;BMP280;31696;42.668;23.322;2024-02-21T02:31:45;95246.22;;;7.20
45976;BMP280;31696;42.668;23.322;2024-02-21T02:33:45;95238.47;;;7.20
45976;BMP280;31696;42.668;23.322;2024-02-21T02:35:46;95236.81;;;7.22
45976;BMP280;31696;42.668;23.322;2024-02-21T02:37:49;95241.16;;;7.09
45976;BMP280;31696;42.668;23.322;2024-02-21T02:39:50;95240.22;;;7.12
45976;BMP280;31696;42.668;23.322;2024-02-21T02:41:50;95234.59;;;7.08
45976;BMP280;31696;42.668;23.322;2024-02-21T02:43:51;95236.56;;;7.02
45976;BMP280;31696;42.668;23.322;2024-02-21T02:45:51;95229.41;;;7.08
45976;BMP280;31696;42.668;23.322;2024-02-21T02:47:55;95229.41;;;7.08
45976;BMP280;31696;42.668;23.322;2024-02-21T02:49:56;95233.16;;;7.12
45976;BMP280;31696;42.668;23.322;2024-02-21T02:51:57;95233.41;;;7.09
45976;BMP280;31696;42.668;23.322;2024-02-21T02:53:57;95235.78;;;7.07
45976;BMP280;31696;42.668;23.322;2024-02-21T02:55:57;95246.91;;;7.20
45976;BMP280;31696;42.668;23.322;2024-02-21T02:57:58;95244.63;;;7.17
45976;BMP280;31696;42.668;23.322;2024-02-21T02:59:58;95244.34;;;7.20
45976;BMP280;31696;42.668;23.322;2024-02-21T03:01:59;95236.88;;;7.17
45976;BMP280;31696;42.668;23.322;2024-02-21T03:03:59;95239.72;;;7.13
45976;BMP280;31696;42.668;23.322;2024-02-21T03:05:59;95236.06;;;7.27
45976;BMP280;31696;42.668;23.322;2024-02-21T03:07:59;95240.19;;;7.17
45976;BMP280;31696;42.668;23.322;2024-02-21T03:10:00;95240.47;;;7.32
45976;BMP280;31696;42.668;23.322;2024-02-21T03:12:00;95244.28;;;7.26
45976;BMP280;31696;42.668;23.322;2024-02-21T03:14:02;95247.72;;;7.10
45976;BMP280;31696;42.668;23.322;2024-02-21T03:16:03;95255.72;;;7.12
45976;BMP280;31696;42.668;23.322;2024-02-21T03:18:04;95252.16;;;7.15
45976;BMP280;31696;42.668;23.322;2024-02-21T03:20:04;95259.91;;;7.15
45976;BMP280;31696;42.668;23.322;2024-02-21T03:22:05;95266.03;;;7.12
45976;BMP280;31696;42.668;23.322;2024-02-21T03:24:06;95260.75;;;7.23
45976;BMP280;31696;42.668;23.322;2024-02-21T03:26:06;95263.00;;;7.08
45976;BMP280;31696;42.668;23.322;2024-02-21T03:28:07;95264.63;;;7.11
45976;BMP280;31696;42.668;23.322;2024-02-21T03:30:07;95259.75;;;7.07
45976;BMP280;31696;42.668;23.322;2024-02-21T03:32:08;95263.75;;;7.03
45976;BMP280;31696;42.668;23.322;2024-02-21T03:34:12;95269.81;;;7.11
45976;BMP280;31696;42.668;23.322;2024-02-21T03:36:15;95266.78;;;7.07
45976;BMP280;31696;42.668;23.322;2024-02-21T03:38:16;95269.38;;;7.07
45976;BMP280;31696;42.668;23.322;2024-02-21T03:40:16;95268.88;;;7.08
45976;BMP280;31696;42.668;23.322;2024-02-21T03:42:17;95269.81;;;7.11
45976;BMP280;31696;42.668;23.322;2024-02-21T03:44:17;95270.13;;;7.02
45976;BMP280;31696;42.668;23.322;2024-02-21T03:46:17;95274.75;;;7.09
45976;BMP280;31696;42.668;23.322;2024-02-21T03:48:18;95274.88;;;7.22
45976;BMP280;31696;42.668;23.322;2024-02-21T03:50:18;95268.28;;;6.97
45976;BMP280;31696;42.668;23.322;2024-02-21T03:52:18;95273.38;;;7.02
45976;BMP280;31696;42.668;23.322;2024-02-21T03:54:19;95269.09;;;7.10
45976;BMP280;31696;42.668;23.322;2024-02-21T03:56:19;95274.41;;;6.93
45976;BMP280;31696;42.668;23.322;2024-02-21T03:58:20;95277.31;;;7.09
45976;BMP280;31696;42.668;23.322;2024-02-21T04:00:20;95268.94;;;7.03
45976;BMP280;31696;42.668;23.322;2024-02-21T04:02:21;95264.03;;;6.99
45976;BMP280;31696;42.668;23.322;2024-02-21T04:04:21;95279.88;;;6.84
45976;BMP280;31696;42.668;23.322;2024-02-21T04:06:21;95274.31;;;7.05
45976;BMP280;31696;42.668;23.322;2024-02-21T04:08:22;95268.50;;;6.99
45976;BMP280;31696;42.668;23.322;2024-02-21T04:10:22;95272.38;;;6.86
45976;BMP280;31696;42.668;23.322;2024-02-21T04:12:23;95270.88;;;6.97
45976;BMP280;31696;42.668;23.322;2024-02-21T04:14:23;95262.47;;;6.90
45976;BMP280;31696;42.668;23.322;2024-02-21T04:16:23;95274.53;;;7.07
45976;BMP280;31696;42.668;23.322;2024-02-21T04:18:24;95271.34;;;6.95
45976;BMP280;31696;42.668;23.322;2024-02-21T04:20:24;95268.38;;;6.85
45976;BMP280;31696;42.668;23.322;2024-02-21T04:22:24;95265.53;;;6.89
45976;BMP280;31696;42.668;23.322;2024-02-21T04:24:25;95271.13;;;6.93
45976;BMP280;31696;42.668;23.322;2024-02-21T04:26:25;95268.34;;;6.91
45976;BMP280;31696;42.668;23.322;2024-02-21T04:28:25;95265.53;;;6.89
45976;BMP280;31696;42.668;23.322;2024-02-21T04:30:26;95272.13;;;6.84
45976;BMP280;31696;42.668;23.322;2024-02-21T04:32:26;95268.50;;;6.99
45976;BMP280;31696;42.668;23.322;2024-02-21T04:34:27;95272.75;;;6.96
45976;BMP280;31696;42.668;23.322;2024-02-21T04:36:27;95269.47;;;6.96
45976;BMP280;31696;42.668;23.322;2024-02-21T04:38:28;95271.41;;;6.89
45976;BMP280;31696;42.668;23.322;2024-02-21T04:40:28;95269.78;;;6.86
45976;BMP280;31696;42.668;23.322;2024-02-21T04:42:29;95272.38;;;6.86
45976;BMP280;31696;42.668;23.322;2024-02-21T04:44:29;95265.38;;;6.81
45976;BMP280;31696;42.668;23.322;2024-02-21T04:46:29;95271.06;;;6.74
45976;BMP280;31696;42.668;23.322;2024-02-21T04:48:30;95267.09;;;6.68
45976;BMP280;31696;42.668;23.322;2024-02-21T04:50:30;95273.38;;;6.78
45976;BMP280;31696;42.668;23.322;2024-02-21T04:52:30;95264.94;;;6.72
45976;BMP280;31696;42.668;23.322;2024-02-21T04:54:31;95272.53;;;6.64
45976;BMP280;31696;42.668;23.322;2024-02-21T04:56:31;95270.44;;;6.63
45976;BMP280;31696;42.668;23.322;2024-02-21T04:58:31;95270.44;;;6.63
45976;BMP280;31696;42.668;23.322;2024-02-21T05:00:32;95271.91;;;6.53
45976;BMP280;31696;42.668;23.322;2024-02-21T05:02:32;95266.56;;;6.45
45976;BMP280;31696;42.668;23.322;2024-02-21T05:04:32;95262.31;;;6.53
45976;BMP280;31696;42.668;23.322;2024-02-21T05:06:37;95265.16;;;6.44
45976;BMP280;31696;42.668;23.322;2024-02-21T05:08:37;95265.22;;;6.38
45976;BMP280;31696;42.668;23.322;2024-02-21T05:10:37;95271.50;;;6.43
45976;BMP280;31696;42.668;23.322;2024-02-21T05:12:37;95276.91;;;6.45
45976;BMP280;31696;42.668;23.322;2024-02-21T05:14:38;95270.03;;;6.53
45976;BMP280;31696;42.668;23.322;2024-02-21T05:16:38;95279.44;;;6.51
45976;BMP280;31696;42.668;23.322;2024-02-21T05:18:40;95282.06;;;6.45
45976;BMP280;31696;42.668;23.322;2024-02-21T05:20:40;95285.72;;;6.55
45976;BMP280;31696;42.668;23.322;2024-02-21T05:22:41;95270.88;;;6.67
45976;BMP280;31696;42.668;23.322;2024-02-21T05:24:41;95281.09;;;6.48
45976;BMP280;31696;42.668;23.322;2024-02-21T05:26:41;95277.41;;;6.68
45976;BMP280;31696;42.668;23.322;2024-02-21T05:28:42;95283.69;;;6.78
45976;BMP280;31696;42.668;23.322;2024-02-21T05:30:42;95280.22;;;6.70
45976;BMP280;31696;42.668;23.322;2024-02-21T05:32:43;95288.50;;;6.63
45976;BMP280;31696;42.668;23.322;2024-02-21T05:34:43;95286.63;;;6.63
45976;BMP280;31696;42.668;23.322;2024-02-21T05:36:44;95287.59;;;6.60
45976;BMP280;31696;42.668;23.322;2024-02-21T05:38:44;95276.22;;;6.74
45976;BMP280;31696;42.668;23.322;2024-02-21T05:40:44;95282.00;;;6.86
45976;BMP280;31696;42.668;23.322;2024-02-21T05:42:45;95282.38;;;6.96
45976;BMP280;31696;42.668;23.322;2024-02-21T05:44:45;95281.41;;;6.99
45976;BMP280;31696;42.668;23.322;2024-02-21T05:46:45;95288.84;;;6.78
45976;BMP280;31696;42.668;23.322;2024-02-21T05:48:46;95289.25;;;6.87
45976;BMP280;31696;42.668;23.322;2024-02-21T05:50:46;95286.38;;;6.97
45976;BMP280;31696;42.668;23.322;2024-02-21T05:52:46;95299.56;;;6.87
45976;BMP280;31696;42.668;23.322;2024-02-21T05:54:47;95293.03;;;6.86
45976;BMP280;31696;42.668;23.322;2024-02-21T05:56:47;95294.13;;;7.21
45976;BMP280;31696;42.668;23.322;2024-02-21T05:58:47;95305.69;;;7.14
45976;BMP280;31696;42.668;23.322;2024-02-21T06:00:48;95304.28;;;7.13
45976;BMP280;31696;42.668;23.322;2024-02-21T06:02:48;95303.00;;;7.01
45976;BMP280;31696;42.668;23.322;2024-02-21T06:04:49;95293.03;;;6.86
45976;BMP280;31696;42.668;23.322;2024-02-21T06:06:50;95304.38;;;7.02
45976;BMP280;31696;42.668;23.322;2024-02-21T06:08:51;95305.22;;;7.16
45976;BMP280;31696;42.668;23.322;2024-02-21T06:10:51;95301.63;;;7.19
45976;BMP280;31696;42.668;23.322;2024-02-21T06:12:55;95308.78;;;7.37
45976;BMP280;31696;42.668;23.322;2024-02-21T06:14:55;95315.31;;;7.38
45976;BMP280;31696;42.668;23.322;2024-02-21T06:16:55;95314.41;;;7.60
45976;BMP280;31696;42.668;23.322;2024-02-21T06:18:55;95320.38;;;7.49
45976;BMP280;31696;42.668;23.322;2024-02-21T06:20:56;95308.22;;;7.68
45976;BMP280;31696;42.668;23.322;2024-02-21T06:22:57;95324.34;;;7.74
45976;BMP280;31696;42.668;23.322;2024-02-21T06:24:57;95315.88;;;7.74
45976;BMP280;31696;42.668;23.322;2024-02-21T06:26:57;95318.41;;;7.79
45976;BMP280;31696;42.668;23.322;2024-02-21T06:28:58;95312.94;;;8.20
45976;BMP280;31696;42.668;23.322;2024-02-21T06:30:59;95320.88;;;8.09
45976;BMP280;31696;42.668;23.322;2024-02-21T06:33:00;95319.56;;;8.03
45976;BMP280;31696;42.668;23.322;2024-02-21T06:35:00;95322.19;;;7.97
45976;BMP280;31696;42.668;23.322;2024-02-21T06:37:02;95320.66;;;7.88
45976;BMP280;31696;42.668;23.322;2024-02-21T06:39:02;95322.66;;;7.77
45976;BMP280;31696;42.668;23.322;2024-02-21T06:41:14;95326.16;;;7.79
45976;BMP280;31696;42.668;23.322;2024-02-21T06:43:14;95332.59;;;7.91
45976;BMP280;31696;42.668;23.322;2024-02-21T06:45:15;95334.00;;;8.11
45976;BMP280;31696;42.668;23.322;2024-02-21T06:47:15;95344.28;;;8.35
45976;BMP280;31696;42.668;23.322;2024-02-21T06:49:15;95335.56;;;8.20
45976;BMP280;31696;42.668;23.322;2024-02-21T06:51:16;95343.53;;;8.22
45976;BMP280;31696;42.668;23.322;2024-02-21T06:53:16;95346.25;;;8.29
45976;BMP280;31696;42.668;23.322;2024-02-21T06:55:16;95351.69;;;8.26
45976;BMP280;31696;42.668;23.322;2024-02-21T06:57:17;95346.94;;;8.49
45976;BMP280;31696;42.668;23.322;2024-02-21T06:59:17;95343.44;;;8.46
45976;BMP280;31696;42.668;23.322;2024-02-21T07:01:17;95346.06;;;8.59
45976;BMP280;31696;42.668;23.322;2024-02-21T07:03:18;95354.81;;;8.56
45976;BMP280;31696;42.668;23.322;2024-02-21T07:05:18;95341.06;;;8.80
45976;BMP280;31696;42.668;23.322;2024-02-21T07:07:18;95351.09;;;8.70
45976;BMP280;31696;42.668;23.322;2024-02-21T07:09:19;95347.47;;;8.60
45976;BMP280;31696;42.668;23.322;2024-02-21T07:11:19;95346.75;;;8.78
45976;BMP280;31696;42.668;23.322;2024-02-21T07:13:19;95337.56;;;8.77
45976;BMP280;31696;42.668;23.322;2024-02-21T07:15:20;95345.72;;;8.81
45976;BMP280;31696;42.668;23.322;2024-02-21T07:17:21;95340.31;;;8.66
45976;BMP280;31696;42.668;23.322;2024-02-21T07:19:21;95348.03;;;8.53
45976;BMP280;31696;42.668;23.322;2024-02-21T07:21:21;95344.41;;;8.43
45976;BMP280;31696;42.668;23.322;2024-02-21T07:23:22;95351.63;;;8.50
45976;BMP280;31696;42.668;23.322;2024-02-21T07:25:22;95350.16;;;8.55
45976;BMP280;31696;42.668;23.322;2024-02-21T07:27:22;95351.25;;;8.40
45976;BMP280;31696;42.668;23.322;2024-02-21T07:29:22;95359.81;;;8.54
45976;BMP280;31696;42.668;23.322;2024-02-21T07:31:23;95354.22;;;8.50
45976;BMP280;31696;42.668;23.322;2024-02-21T07:33:23;95347.63;;;8.30
45976;BMP280;31696;42.668;23.322;2024-02-21T07:35:23;95354.50;;;8.47
45976;BMP280;31696;42.668;23.322;2024-02-21T07:37:24;95349.09;;;8.76
45976;BMP280;31696;42.668;23.322;2024-02-21T07:39:24;95355.19;;;8.47
45976;BMP280;31696;42.668;23.322;2024-02-21T07:41:25;95358.16;;;8.70
45976;BMP280;31696;42.668;23.322;2024-02-21T07:43:26;95351.97;;;8.73
45976;BMP280;31696;42.668;23.322;2024-02-21T07:45:26;95346.66;;;8.84
45976;BMP280;31696;42.668;23.322;2024-02-21T07:47:27;95353.09;;;8.77
45976;BMP280;31696;42.668;23.322;2024-02-21T07:49:27;95350.31;;;8.88
45976;BMP280;31696;42.668;23.322;2024-02-21T07:51:28;95346.56;;;8.89
45976;BMP280;31696;42.668;23.322;2024-02-21T07:53:28;95343.88;;;8.95
45976;BMP280;31696;42.668;23.322;2024-02-21T07:55:28;95340.81;;;8.97
45976;BMP280;31696;42.668;23.322;2024-02-21T07:57:29;95349.34;;;8.91
45976;BMP280;31696;42.668;23.322;2024-02-21T07:59:29;95345.84;;;8.89
45976;BMP280;31696;42.668;23.322;2024-02-21T08:01:30;95340.34;;;8.79
45976;BMP280;31696;42.668;23.322;2024-02-21T08:03:30;95342.78;;;8.90
45976;BMP280;31696;42.668;23.322;2024-02-21T08:05:30;95337.47;;;8.83
45976;BMP280;31696;42.668;23.322;2024-02-21T08:07:31;95346.97;;;8.93
45976;BMP280;31696;42.668;23.322;2024-02-21T08:09:31;95343.13;;;9.26
45976;BMP280;31696;42.668;23.322;2024-02-21T08:11:31;95349.41;;;9.31
45976;BMP280;31696;42.668;23.322;2024-02-21T08:13:32;95344.00;;;9.29
45976;BMP280;31696;42.668;23.322;2024-02-21T08:15:32;95334.81;;;9.80
45976;BMP280;31696;42.668;23.322;2024-02-21T08:17:34;95349.94;;;9.89
45976;BMP280;31696;42.668;23.322;2024-02-21T08:19:34;95345.59;;;11.29
45976;BMP280;31696;42.668;23.322;2024-02-21T08:21:34;95336.09;;;11.75
45976;BMP280;31696;42.668;23.322;2024-02-21T08:23:34;95333.00;;;11.13
45976;BMP280;31696;42.668;23.322;2024-02-21T08:25:35;95338.63;;;11.52
45976;BMP280;31696;42.668;23.322;2024-02-21T08:27:35;95336.41;;;11.00
45976;BMP280;31696;42.668;23.322;2024-02-21T08:29:37;95333.34;;;10.81
45976;BMP280;31696;42.668;23.322;2024-02-21T08:31:37;95338.03;;;10.41
45976;BMP280;31696;42.668;23.322;2024-02-21T08:33:38;95340.47;;;10.88
45976;BMP280;31696;42.668;23.322;2024-02-21T08:35:38;95337.25;;;11.23
45976;BMP280;31696;42.668;23.322;2024-02-21T08:37:38;95333.03;;;11.48
45976;BMP280;31696;42.668;23.322;2024-02-21T08:39:39;95336.44;;;11.79
45976;BMP280;31696;42.668;23.322;2024-02-21T08:41:39;95343.25;;;11.82
45976;BMP280;31696;42.668;23.322;2024-02-21T08:43:39;95326.03;;;11.79
45976;BMP280;31696;42.668;23.322;2024-02-21T08:45:40;95343.84;;;11.60
45976;BMP280;31696;42.668;23.322;2024-02-21T08:47:40;95334.22;;;11.40
45976;BMP280;31696;42.668;23.322;2024-02-21T08:49:41;95332.38;;;11.55
45976;BMP280;31696;42.668;23.322;2024-02-21T08:51:41;95338.50;;;11.73
45976;BMP280;31696;42.668;23.322;2024-02-21T08:53:46;95334.06;;;11.10
45976;BMP280;31696;42.668;23.322;2024-02-21T08:55:47;95334.03;;;11.38
45976;BMP280;31696;42.668;23.322;2024-02-21T08:57:47;95335.19;;;11.29
45976;BMP280;31696;42.668;23.322;2024-02-21T08:59:47;95336.75;;;11.25
45976;BMP280;31696;42.668;23.322;2024-02-21T09:01:48;95336.03;;;11.17
45976;BMP280;31696;42.668;23.322;2024-02-21T09:03:48;95348.91;;;11.30
45976;BMP280;31696;42.668;23.322;2024-02-21T09:05:52;95334.78;;;11.18
45976;BMP280;31696;42.668;23.322;2024-02-21T09:07:53;95335.97;;;11.09
45976;BMP280;31696;42.668;23.322;2024-02-21T09:09:53;95336.19;;;11.19
45976;BMP280;31696;42.668;23.322;2024-02-21T09:11:54;95342.22;;;11.14
45976;BMP280;31696;42.668;23.322;2024-02-21T09:13:54;95346.13;;;10.99
45976;BMP280;31696;42.668;23.322;2024-02-21T09:15:55;95344.69;;;10.91
45976;BMP280;31696;42.668;23.322;2024-02-21T09:17:55;95338.75;;;11.11
45976;BMP280;31696;42.668;23.322;2024-02-21T09:19:55;95340.44;;;11.80
45976;BMP280;31696;42.668;23.322;2024-02-21T09:21:59;95343.28;;;11.54
45976;BMP280;31696;42.668;23.322;2024-02-21T09:23:59;95337.44;;;11.61
45976;BMP280;31696;42.668;23.322;2024-02-21T09:25:59;95337.88;;;11.44
45976;BMP280;31696;42.668;23.322;2024-02-21T09:28:03;95332.88;;;11.54
45976;BMP280;31696;42.668;23.322;2024-02-21T09:30:06;95333.69;;;11.77
45976;BMP280;31696;42.668;23.322;2024-02-21T09:32:06;95340.31;;;12.01
45976;BMP280;31696;42.668;23.322;2024-02-21T09:34:07;95338.50;;;12.39
45976;BMP280;31696;42.668;23.322;2024-02-21T09:36:07;95343.34;;;12.58
45976;BMP280;31696;42.668;23.322;2024-02-21T09:38:07;95337.59;;;12.90
45976;BMP280;31696;42.668;23.322;2024-02-21T09:40:08;95331.34;;;12.77
45976;BMP280;31696;42.668;23.322;2024-02-21T09:42:08;95333.44;;;12.71
45976;BMP280;31696;42.668;23.322;2024-02-21T09:44:11;95335.19;;;12.39
45976;BMP280;31696;42.668;23.322;2024-02-21T09:46:16;95333.91;;;12.09
45976;BMP280;31696;42.668;23.322;2024-02-21T09:50:30;95338.56;;;11.88
45976;BMP280;31696;42.668;23.322;2024-02-21T09:52:32;95333.28;;;11.73
45976;BMP280;31696;42.668;23.322;2024-02-21T09:54:33;95340.88;;;11.56
45976;BMP280;31696;42.668;23.322;2024-02-21T09:56:33;95328.22;;;11.17
45976;BMP280;31696;42.668;23.322;2024-02-21T09:58:33;95336.63;;;11.38
45976;BMP280;31696;42.668;23.322;2024-02-21T10:00:35;95338.63;;;11.52
45976;BMP280;31696;42.668;23.322;2024-02-21T10:02:35;95333.25;;;11.58
45976;BMP280;31696;42.668;23.322;2024-02-21T10:04:36;95337.00;;;11.42
45976;BMP280;31696;42.668;23.322;2024-02-21T10:06:37;95337.50;;;11.76
45976;BMP280;31696;42.668;23.322;2024-02-21T10:08:37;95328.88;;;11.53
45976;BMP280;31696;42.668;23.322;2024-02-21T10:10:44;95319.88;;;11.54
45976;BMP280;31696;42.668;23.322;2024-02-21T10:12:51;95320.53;;;11.83
45976;BMP280;31696;42.668;23.322;2024-02-21T10:15:04;95312.34;;;11.86
45976;BMP280;31696;42.668;23.322;2024-02-21T10:17:05;95317.63;;;11.58
45976;BMP280;31696;42.668;23.322;2024-02-21T10:19:18;95324.84;;;11.37
45976;BMP280;31696;42.668;23.322;2024-02-21T10:21:19;95320.31;;;11.37
45976;BMP280;31696;42.668;23.322;2024-02-21T10:23:20;95311.84;;;11.37
45976;BMP280;31696;42.668;23.322;2024-02-21T10:25:20;95308.38;;;11.78
45976;BMP280;31696;42.668;23.322;2024-02-21T10:27:23;95307.53;;;11.39
45976;BMP280;31696;42.668;23.322;2024-02-21T10:29:23;95303.22;;;11.49
45976;BMP280;31696;42.668;23.322;2024-02-21T10:31:24;95302.22;;;11.17
45976;BMP280;31696;42.668;23.322;2024-02-21T10:33:25;95294.72;;;11.49
45976;BMP280;31696;42.668;23.322;2024-02-21T10:35:34;95296.03;;;11.35
45976;BMP280;31696;42.668;23.322;2024-02-21T10:37:34;95284.56;;;11.66
45976;BMP280;31696;42.668;23.322;2024-02-21T10:39:35;95285.94;;;11.24
45976;BMP280;31696;42.668;23.322;2024-02-21T10:41:36;95276.81;;;11.38
45976;BMP280;31696;42.668;23.322;2024-02-21T10:43:40;95271.94;;;11.93
45976;BMP280;31696;42.668;23.322;2024-02-21T10:45:40;95262.59;;;12.05
45976;BMP280;31696;42.668;23.322;2024-02-21T10:47:41;95258.41;;;11.94
45976;BMP280;31696;42.668;23.322;2024-02-21T10:49:44;95257.56;;;12.45
45976;BMP280;31696;42.668;23.322;2024-02-21T10:51:47;95246.97;;;12.58
45976;BMP280;31696;42.668;23.322;2024-02-21T10:53:57;95246.75;;;12.79
45976;BMP280;31696;42.668;23.322;2024-02-21T10:56:06;95249.72;;;12.75
45976;BMP280;31696;42.668;23.322;2024-02-21T10:58:10;95238.63;;;12.37
45976;BMP280;31696;42.668;23.322;2024-02-21T11:00:11;95234.13;;;12.14
45976;BMP280;31696;42.668;23.322;2024-02-21T11:02:12;95238.31;;;12.17
45976;BMP280;31696;42.668;23.322;2024-02-21T11:04:13;95237.44;;;12.23
45976;BMP280;31696;42.668;23.322;2024-02-21T11:06:13;95223.50;;;12.50
45976;BMP280;31696;42.668;23.322;2024-02-21T11:08:15;95227.88;;;12.48
45976;BMP280;31696;42.668;23.322;2024-02-21T11:10:25;95221.63;;;12.28
45976;BMP280;31696;42.668;23.322;2024-02-21T11:12:25;95215.88;;;12.30
45976;BMP280;31696;42.668;23.322;2024-02-21T11:14:27;95215.06;;;12.12
45976;BMP280;31696;42.668;23.322;2024-02-21T11:16:28;95213.84;;;12.21
45976;BMP280;31696;42.668;23.322;2024-02-21T11:18:35;95219.56;;;12.27
45976;BMP280;31696;42.668;23.322;2024-02-21T11:20:35;95218.53;;;11.92
45976;BMP280;31696;42.668;23.322;2024-02-21T11:22:40;95219.38;;;11.94
45976;BMP280;31696;42.668;23.322;2024-02-21T11:24:41;95215.06;;;11.97
45976;BMP280;31696;42.668;23.322;2024-02-21T11:26:42;95209.47;;;12.15
45976;BMP280;31696;42.668;23.322;2024-02-21T11:28:43;95217.47;;;12.02
45976;BMP280;31696;42.668;23.322;2024-02-21T11:30:44;95214.16;;;11.94
45976;BMP280;31696;42.668;23.322;2024-02-21T11:32:46;95202.53;;;11.80
45976;BMP280;31696;42.668;23.322;2024-02-21T11:35:00;95216.19;;;11.58
45976;BMP280;31696;42.668;23.322;2024-02-21T11:37:01;95203.59;;;11.77
45976;BMP280;31696;42.668;23.322;2024-02-21T11:39:05;95213.28;;;11.61